sensor_id;sensor_type;location;lat;lon;timestamp;temperature;humidity
23769;DHT22;12064;50.890;5.424;2023-03-24T00:03:36;18.20;86.10
23769;DHT22;12064;50.890;5.424;2023-03-24T00:12:31;18.20;86.10
23769;DHT22;12064;50.890;5.424;2023-03-24T00:21:24;18.20;86.20
23769;DHT22;12064;50.890;5.424;2023-03-24T00:30:16;18.20;86.20
23769;DHT22;12064;50.890;5.424;2023-03-24T00:39:07;18.20;86.30
23769;DHT22;12064;50.890;5.424;2023-03-24T00:47:58;18.20;86.60
23769;DHT22;12064;50.890;5.424;2023-03-24T00:56:49;18.20;86.60
23769;DHT22;12064;50.890;5.424;2023-03-24T01:05:45;18.10;86.70
23769;DHT22;12064;50.890;5.424;2023-03-24T01:14:37;18.10;86.80
23769;DHT22;12064;50.890;5.424;2023-03-24T01:23:28;18.10;86.90
23769;DHT22;12064;50.890;5.424;2023-03-24T01:32:20;18.10;87.00
23769;DHT22;12064;50.890;5.424;2023-03-24T01:41:11;18.10;87.20
23769;DHT22;12064;50.890;5.424;2023-03-24T01:50:02;18.10;87.90
23769;DHT22;12064;50.890;5.424;2023-03-24T01:58:59;18.10;87.30
23769;DHT22;12064;50.890;5.424;2023-03-24T02:26:19;18.00;87.60
23769;DHT22;12064;50.890;5.424;2023-03-24T03:03:08;18.00;87.80
23769;DHT22;12064;50.890;5.424;2023-03-24T03:12:04;18.00;88.10
23769;DHT22;12064;50.890;5.424;2023-03-24T03:21:00;18.10;88.20
23769;DHT22;12064;50.890;5.424;2023-03-24T03:30:02;18.00;88.10
23769;DHT22;12064;50.890;5.424;2023-03-24T03:39:10;18.00;88.20
23769;DHT22;12064;50.890;5.424;2023-03-24T03:48:04;18.00;88.20
23769;DHT22;12064;50.890;5.424;2023-03-24T03:56:55;18.00;88.20
23769;DHT22;12064;50.890;5.424;2023-03-24T04:06:35;18.00;88.30
23769;DHT22;12064;50.890;5.424;2023-03-24T04:33:26;18.00;88.40
23769;DHT22;12064;50.890;5.424;2023-03-24T04:42:26;18.00;88.30
23769;DHT22;12064;50.890;5.424;2023-03-24T04:51:19;18.00;88.30
23769;DHT22;12064;50.890;5.424;2023-03-24T05:00:10;17.90;88.80
23769;DHT22;12064;50.890;5.424;2023-03-24T05:09:02;17.90;89.10
23769;DHT22;12064;50.890;5.424;2023-03-24T05:17:54;17.80;89.10
23769;DHT22;12064;50.890;5.424;2023-03-24T05:26:46;17.80;89.20
23769;DHT22;12064;50.890;5.424;2023-03-24T05:35:37;17.80;88.90
23769;DHT22;12064;50.890;5.424;2023-03-24T05:44:28;17.80;88.60
23769;DHT22;12064;50.890;5.424;2023-03-24T05:53:19;17.80;88.40
23769;DHT22;12064;50.890;5.424;2023-03-24T06:02:10;17.80;88.30
23769;DHT22;12064;50.890;5.424;2023-03-24T06:11:01;17.80;88.00
23769;DHT22;12064;50.890;5.424;2023-03-24T06:19:53;17.80;87.80
23769;DHT22;12064;50.890;5.424;2023-03-24T06:28:43;17.80;87.60
23769;DHT22;12064;50.890;5.424;2023-03-24T06:37:34;17.30;84.20
23769;DHT22;12064;50.890;5.424;2023-03-24T06:46:26;17.80;85.40
23769;DHT22;12064;50.890;5.424;2023-03-24T06:55:19;17.70;85.70
23769;DHT22;12064;50.890;5.424;2023-03-24T07:04:11;17.80;87.60
23769;DHT22;12064;50.890;5.424;2023-03-24T07:13:02;17.90;87.80
23769;DHT22;12064;50.890;5.424;2023-03-24T07:21:53;17.80;87.60
23769;DHT22;12064;50.890;5.424;2023-03-24T07:30:43;17.80;88.00
23769;DHT22;12064;50.890;5.424;2023-03-24T07:39:34;18.00;87.70
23769;DHT22;12064;50.890;5.424;2023-03-24T07:48:24;18.00;87.50
23769;DHT22;12064;50.890;5.424;2023-03-24T07:57:15;17.90;87.40
23769;DHT22;12064;50.890;5.424;2023-03-24T08:06:07;18.50;85.50
23769;DHT22;12064;50.890;5.424;2023-03-24T08:14:58;19.00;83.20
23769;DHT22;12064;50.890;5.424;2023-03-24T08:23:48;19.10;82.80
23769;DHT22;12064;50.890;5.424;2023-03-24T08:32:44;18.90;83.20
23769;DHT22;12064;50.890;5.424;2023-03-24T08:41:35;18.80;83.60
23769;DHT22;12064;50.890;5.424;2023-03-24T08:50:31;18.60;83.80
23769;DHT22;12064;50.890;5.424;2023-03-24T08:59:23;18.70;84.00
23769;DHT22;12064;50.890;5.424;2023-03-24T09:08:16;18.60;83.90
23769;DHT22;12064;50.890;5.424;2023-03-24T09:17:07;18.80;83.60
23769;DHT22;12064;50.890;5.424;2023-03-24T09:25:58;18.70;83.90
23769;DHT22;12064;50.890;5.424;2023-03-24T09:34:49;18.50;84.10
23769;DHT22;12064;50.890;5.424;2023-03-24T09:52:56;18.50;84.50
23769;DHT22;12064;50.890;5.424;2023-03-24T10:01:48;18.70;84.20
23769;DHT22;12064;50.890;5.424;2023-03-24T10:29:31;18.80;83.50
23769;DHT22;12064;50.890;5.424;2023-03-24T10:38:24;18.70;84.30
23769;DHT22;12064;50.890;5.424;2023-03-24T10:47:17;18.50;84.70
23769;DHT22;12064;50.890;5.424;2023-03-24T10:56:17;18.40;84.90
23769;DHT22;12064;50.890;5.424;2023-03-24T11:05:21;18.50;84.80
23769;DHT22;12064;50.890;5.424;2023-03-24T11:14:25;18.50;84.30
23769;DHT22;12064;50.890;5.424;2023-03-24T11:23:19;18.60;84.20
23769;DHT22;12064;50.890;5.424;2023-03-24T11:32:13;18.70;84.10
23769;DHT22;12064;50.890;5.424;2023-03-24T11:41:18;18.60;79.60
23769;DHT22;12064;50.890;5.424;2023-03-24T12:17:23;18.70;83.40
23769;DHT22;12064;50.890;5.424;2023-03-24T12:26:27;18.70;83.50
23769;DHT22;12064;50.890;5.424;2023-03-24T12:35:28;18.70;83.40
23769;DHT22;12064;50.890;5.424;2023-03-24T13:02:44;18.70;83.60
23769;DHT22;12064;50.890;5.424;2023-03-24T13:20:53;18.70;83.60
23769;DHT22;12064;50.890;5.424;2023-03-24T13:38:59;18.80;83.60
23769;DHT22;12064;50.890;5.424;2023-03-24T13:48:03;18.80;83.30
23769;DHT22;12064;50.890;5.424;2023-03-24T13:57:07;18.80;83.40
23769;DHT22;12064;50.890;5.424;2023-03-24T14:06:05;18.90;83.30
23769;DHT22;12064;50.890;5.424;2023-03-24T14:15:16;18.80;83.50
23769;DHT22;12064;50.890;5.424;2023-03-24T14:24:15;18.90;83.40
23769;DHT22;12064;50.890;5.424;2023-03-24T14:33:23;18.90;83.40
23769;DHT22;12064;50.890;5.424;2023-03-24T15:00:19;18.80;83.60
23769;DHT22;12064;50.890;5.424;2023-03-24T15:09:11;18.80;84.50
23769;DHT22;12064;50.890;5.424;2023-03-24T15:18:02;19.00;83.10
23769;DHT22;12064;50.890;5.424;2023-03-24T15:35:57;19.10;82.20
23769;DHT22;12064;50.890;5.424;2023-03-24T15:44:49;19.10;82.50
23769;DHT22;12064;50.890;5.424;2023-03-24T16:02:59;19.60;81.00
23769;DHT22;12064;50.890;5.424;2023-03-24T16:11:52;19.50;81.60
23769;DHT22;12064;50.890;5.424;2023-03-24T16:20:43;19.50;82.20
23769;DHT22;12064;50.890;5.424;2023-03-24T16:29:33;19.30;82.90
23769;DHT22;12064;50.890;5.424;2023-03-24T16:38:25;19.50;82.50
23769;DHT22;12064;50.890;5.424;2023-03-24T16:47:16;19.60;82.40
23769;DHT22;12064;50.890;5.424;2023-03-24T16:56:07;19.60;82.30
23769;DHT22;12064;50.890;5.424;2023-03-24T17:04:58;19.60;82.30
23769;DHT22;12064;50.890;5.424;2023-03-24T17:13:49;19.60;82.20
23769;DHT22;12064;50.890;5.424;2023-03-24T17:22:42;19.60;82.10
23769;DHT22;12064;50.890;5.424;2023-03-24T17:31:33;19.60;82.00
23769;DHT22;12064;50.890;5.424;2023-03-24T17:40:24;19.60;82.10
23769;DHT22;12064;50.890;5.424;2023-03-24T17:49:15;19.60;82.00
23769;DHT22;12064;50.890;5.424;2023-03-24T17:58:06;19.60;82.00
23769;DHT22;12064;50.890;5.424;2023-03-24T18:06:56;19.50;82.10
23769;DHT22;12064;50.890;5.424;2023-03-24T18:15:48;19.60;82.10
23769;DHT22;12064;50.890;5.424;2023-03-24T18:24:39;19.50;82.10
23769;DHT22;12064;50.890;5.424;2023-03-24T18:33:30;19.50;82.20
23769;DHT22;12064;50.890;5.424;2023-03-24T18:42:21;19.50;82.30
23769;DHT22;12064;50.890;5.424;2023-03-24T18:51:12;19.40;82.50
23769;DHT22;12064;50.890;5.424;2023-03-24T19:00:03;19.40;83.10
23769;DHT22;12064;50.890;5.424;2023-03-24T19:08:58;19.20;83.60
23769;DHT22;12064;50.890;5.424;2023-03-24T19:17:49;19.20;83.60
23769;DHT22;12064;50.890;5.424;2023-03-24T19:26:40;19.10;83.80
23769;DHT22;12064;50.890;5.424;2023-03-24T19:35:30;19.00;84.20
23769;DHT22;12064;50.890;5.424;2023-03-24T19:44:21;19.00;84.10
23769;DHT22;12064;50.890;5.424;2023-03-24T19:53:12;19.00;84.30
23769;DHT22;12064;50.890;5.424;2023-03-24T20:02:03;18.90;84.50
23769;DHT22;12064;50.890;5.424;2023-03-24T20:10:54;18.80;84.80
23769;DHT22;12064;50.890;5.424;2023-03-24T20:19:45;18.70;84.90
23769;DHT22;12064;50.890;5.424;2023-03-24T20:28:35;18.80;84.90
23769;DHT22;12064;50.890;5.424;2023-03-24T20:37:26;18.70;85.10
23769;DHT22;12064;50.890;5.424;2023-03-24T20:46:19;18.70;85.40
23769;DHT22;12064;50.890;5.424;2023-03-24T20:55:10;18.70;85.50
23769;DHT22;12064;50.890;5.424;2023-03-24T21:04:03;18.70;85.50
23769;DHT22;12064;50.890;5.424;2023-03-24T21:12:54;18.70;86.40
23769;DHT22;12064;50.890;5.424;2023-03-24T21:21:45;18.70;86.60
23769;DHT22;12064;50.890;5.424;2023-03-24T21:30:38;18.70;86.70
23769;DHT22;12064;50.890;5.424;2023-03-24T21:39:29;18.80;87.50
23769;DHT22;12064;50.890;5.424;2023-03-24T21:48:20;18.80;86.70
23769;DHT22;12064;50.890;5.424;2023-03-24T21:57:11;18.70;87.00
23769;DHT22;12064;50.890;5.424;2023-03-24T22:06:03;18.70;86.90
23769;DHT22;12064;50.890;5.424;2023-03-24T22:14:54;18.70;87.00
23769;DHT22;12064;50.890;5.424;2023-03-24T22:23:45;18.70;87.00
23769;DHT22;12064;50.890;5.424;2023-03-24T22:32:36;18.70;86.70
23769;DHT22;12064;50.890;5.424;2023-03-24T22:41:27;18.60;86.80
23769;DHT22;12064;50.890;5.424;2023-03-24T22:50:17;18.60;87.10
23769;DHT22;12064;50.890;5.424;2023-03-24T22:59:08;18.50;87.10
23769;DHT22;12064;50.890;5.424;2023-03-24T23:07:59;18.50;87.20
23769;DHT22;12064;50.890;5.424;2023-03-24T23:16:50;18.50;87.50
23769;DHT22;12064;50.890;5.424;2023-03-24T23:25:44;18.50;87.40
23769;DHT22;12064;50.890;5.424;2023-03-24T23:34:35;18.40;87.40
23769;DHT22;12064;50.890;5.424;2023-03-24T23:43:27;18.40;87.50
23769;DHT22;12064;50.890;5.424;2023-03-24T23:52:18;18.40;87.70
